sensor_id;sensor_type;location;lat;lon;timestamp;pressure;altitude;pressure_sealevel;temperature;humidity
48636;BME280;34429;52.332;5.614;2022-07-10T00:00:14;102709.69;;;15.98;100.00
48636;BME280;34429;52.332;5.614;2022-07-10T00:02:46;102705.72;;;16.02;100.00
48636;BME280;34429;52.332;5.614;2022-07-10T00:05:14;102700.91;;;16.05;100.00
48636;BME280;34429;52.332;5.614;2022-07-10T00:07:42;102699.78;;;16.08;100.00
48636;BME280;34429;52.332;5.614;2022-07-10T00:10:11;102697.69;;;16.00;100.00
48636;BME280;34429;52.332;5.614;2022-07-10T00:12:42;102704.09;;;16.10;100.00
48636;BME280;34429;52.332;5.614;2022-07-10T00:15:11;102697.47;;;16.03;100.00
48636;BME280;34429;52.332;5.614;2022-07-10T00:17:41;102698.97;;;15.85;100.00
48636;BME280;34429;52.332;5.614;2022-07-10T00:20:11;102697.69;;;16.00;100.00
48636;BME280;34429;52.332;5.614;2022-07-10T00:22:40;102696.31;;;16.06;100.00
48636;BME280;34429;52.332;5.614;2022-07-10T00:25:10;102705.56;;;16.15;100.00
48636;BME280;34429;52.332;5.614;2022-07-10T00:27:42;102703.38;;;16.08;100.00
48636;BME280;34429;52.332;5.614;2022-07-10T00:30:11;102701.16;;;16.02;100.00
48636;BME280;34429;52.332;5.614;2022-07-10T00:32:39;102696.94;;;16.09;100.00
48636;BME280;34429;52.332;5.614;2022-07-10T00:35:08;102694.53;;;16.27;100.00
48636;BME280;34429;52.332;5.614;2022-07-10T00:37:36;102705.56;;;16.15;100.00
48636;BME280;34429;52.332;5.614;2022-07-10T00:40:06;102710.41;;;16.11;100.00
48636;BME280;34429;52.332;5.614;2022-07-10T00:42:35;102708.47;;;15.90;100.00
48636;BME280;34429;52.332;5.614;2022-07-10T00:45:06;102698.81;;;15.98;100.00
48636;BME280;34429;52.332;5.614;2022-07-10T00:47:35;102692.91;;;15.58;100.00
48636;BME280;34429;52.332;5.614;2022-07-10T00:50:05;102687.34;;;15.49;100.00
48636;BME280;34429;52.332;5.614;2022-07-10T00:52:35;102687.25;;;15.50;100.00
48636;BME280;34429;52.332;5.614;2022-07-10T00:55:05;102692.31;;;15.55;100.00
48636;BME280;34429;52.332;5.614;2022-07-10T00:57:34;102685.38;;;15.73;100.00
48636;BME280;34429;52.332;5.614;2022-07-10T01:00:09;102678.09;;;15.63;100.00
48636;BME280;34429;52.332;5.614;2022-07-10T01:02:41;102675.28;;;15.64;100.00
48636;BME280;34429;52.332;5.614;2022-07-10T01:05:10;102682.91;;;15.70;100.00
48636;BME280;34429;52.332;5.614;2022-07-10T01:07:39;102671.44;;;15.78;100.00
48636;BME280;34429;52.332;5.614;2022-07-10T01:10:07;102665.16;;;15.89;100.00
48636;BME280;34429;52.332;5.614;2022-07-10T01:12:36;102665.16;;;15.89;100.00
48636;BME280;34429;52.332;5.614;2022-07-10T01:15:09;102668.59;;;15.80;100.00
48636;BME280;34429;52.332;5.614;2022-07-10T01:17:38;102664.41;;;15.75;100.00
48636;BME280;34429;52.332;5.614;2022-07-10T01:20:07;102663.78;;;15.72;100.00
48636;BME280;34429;52.332;5.614;2022-07-10T01:22:38;102666.09;;;15.76;100.00
48636;BME280;34429;52.332;5.614;2022-07-10T01:25:07;102651.19;;;15.82;100.00
48636;BME280;34429;52.332;5.614;2022-07-10T01:27:36;102649.94;;;15.75;100.00
48636;BME280;34429;52.332;5.614;2022-07-10T01:30:05;102657.75;;;15.80;100.00
48636;BME280;34429;52.332;5.614;2022-07-10T01:32:37;102650.06;;;15.73;100.00
48636;BME280;34429;52.332;5.614;2022-07-10T01:35:07;102651.97;;;15.84;100.00
48636;BME280;34429;52.332;5.614;2022-07-10T01:37:38;102653.53;;;15.87;100.00
48636;BME280;34429;52.332;5.614;2022-07-10T01:40:08;102661.19;;;15.70;100.00
48636;BME280;34429;52.332;5.614;2022-07-10T01:42:36;102643.91;;;15.71;100.00
48636;BME280;34429;52.332;5.614;2022-07-10T01:45:06;102642.56;;;15.77;100.00
48636;BME280;34429;52.332;5.614;2022-07-10T01:47:35;102642.19;;;15.70;100.00
48636;BME280;34429;52.332;5.614;2022-07-10T01:50:05;102635.25;;;15.77;100.00
48636;BME280;34429;52.332;5.614;2022-07-10T01:52:33;102639.81;;;15.88;100.00
48636;BME280;34429;52.332;5.614;2022-07-10T01:55:05;102634.53;;;15.87;100.00
48636;BME280;34429;52.332;5.614;2022-07-10T01:57:34;102636.53;;;15.85;100.00
48636;BME280;34429;52.332;5.614;2022-07-10T02:00:03;102637.88;;;15.90;100.00
48636;BME280;34429;52.332;5.614;2022-07-10T02:02:33;102633.44;;;15.78;100.00
48636;BME280;34429;52.332;5.614;2022-07-10T02:05:01;102625.91;;;15.82;100.00
48636;BME280;34429;52.332;5.614;2022-07-10T02:07:30;102625.63;;;15.96;100.00
48636;BME280;34429;52.332;5.614;2022-07-10T02:09:58;102623.06;;;15.94;100.00
48636;BME280;34429;52.332;5.614;2022-07-10T02:12:29;102617.50;;;15.96;100.00
48636;BME280;34429;52.332;5.614;2022-07-10T02:14:57;102622.22;;;15.83;100.00
48636;BME280;34429;52.332;5.614;2022-07-10T02:17:27;102621.22;;;15.84;100.00
48636;BME280;34429;52.332;5.614;2022-07-10T02:19:55;102619.25;;;15.86;100.00
48636;BME280;34429;52.332;5.614;2022-07-10T02:22:23;102618.63;;;15.82;100.00
48636;BME280;34429;52.332;5.614;2022-07-10T02:24:52;102613.28;;;15.92;100.00
48636;BME280;34429;52.332;5.614;2022-07-10T02:27:20;102621.22;;;15.84;100.00
48636;BME280;34429;52.332;5.614;2022-07-10T02:29:51;102610.59;;;15.81;100.00
48636;BME280;34429;52.332;5.614;2022-07-10T02:32:19;102608.88;;;15.80;100.00
48636;BME280;34429;52.332;5.614;2022-07-10T02:34:47;102618.84;;;15.90;100.00
48636;BME280;34429;52.332;5.614;2022-07-10T02:37:16;102611.34;;;15.83;100.00
48636;BME280;34429;52.332;5.614;2022-07-10T02:39:44;102614.31;;;15.80;100.00
48636;BME280;34429;52.332;5.614;2022-07-10T02:42:12;102607.25;;;15.88;100.00
48636;BME280;34429;52.332;5.614;2022-07-10T02:44:40;102601.34;;;15.72;100.00
48636;BME280;34429;52.332;5.614;2022-07-10T02:47:11;102599.72;;;15.69;100.00
48636;BME280;34429;52.332;5.614;2022-07-10T02:49:39;102599.63;;;15.82;100.00
48636;BME280;34429;52.332;5.614;2022-07-10T02:52:08;102591.34;;;15.84;100.00
48636;BME280;34429;52.332;5.614;2022-07-10T02:54:37;102602.69;;;15.77;100.00
48636;BME280;34429;52.332;5.614;2022-07-10T02:57:05;102599.22;;;15.87;100.00
48636;BME280;34429;52.332;5.614;2022-07-10T02:59:34;102599.84;;;15.90;100.00
48636;BME280;34429;52.332;5.614;2022-07-10T03:02:03;102604.66;;;15.87;100.00
48636;BME280;34429;52.332;5.614;2022-07-10T03:04:34;102596.06;;;15.82;100.00
48636;BME280;34429;52.332;5.614;2022-07-10T03:07:03;102599.47;;;15.84;100.00
48636;BME280;34429;52.332;5.614;2022-07-10T03:09:31;102604.19;;;15.82;100.00
48636;BME280;34429;52.332;5.614;2022-07-10T03:12:00;102604.53;;;15.88;100.00
48636;BME280;34429;52.332;5.614;2022-07-10T03:14:28;102606.75;;;15.94;100.00
48636;BME280;34429;52.332;5.614;2022-07-10T03:16:56;102611.09;;;15.86;100.00
48636;BME280;34429;52.332;5.614;2022-07-10T03:19:24;102615.88;;;15.93;100.00
48636;BME280;34429;52.332;5.614;2022-07-10T03:21:55;102609.59;;;15.93;100.00
48636;BME280;34429;52.332;5.614;2022-07-10T03:24:24;102612.09;;;15.85;100.00
48636;BME280;34429;52.332;5.614;2022-07-10T03:26:52;102603.94;;;15.85;100.00
48636;BME280;34429;52.332;5.614;2022-07-10T03:29:20;102607.13;;;15.90;100.00
48636;BME280;34429;52.332;5.614;2022-07-10T03:31:48;102601.56;;;15.91;100.00
48636;BME280;34429;52.332;5.614;2022-07-10T03:34:17;102601.81;;;15.88;100.00
48636;BME280;34429;52.332;5.614;2022-07-10T03:36:45;102599.19;;;15.98;100.00
48636;BME280;34429;52.332;5.614;2022-07-10T03:39:16;102589.06;;;16.00;100.00
48636;BME280;34429;52.332;5.614;2022-07-10T03:41:44;102596.88;;;15.93;100.00
48636;BME280;34429;52.332;5.614;2022-07-10T03:44:13;102589.13;;;15.89;100.00
48636;BME280;34429;52.332;5.614;2022-07-10T03:46:41;102597.97;;;15.91;100.00
48636;BME280;34429;52.332;5.614;2022-07-10T03:49:09;102594.19;;;15.82;100.00
48636;BME280;34429;52.332;5.614;2022-07-10T03:51:37;102597.41;;;15.87;100.00
48636;BME280;34429;52.332;5.614;2022-07-10T03:54:06;102596.41;;;15.77;100.00
48636;BME280;34429;52.332;5.614;2022-07-10T03:56:36;102599.03;;;15.79;100.00
48636;BME280;34429;52.332;5.614;2022-07-10T03:59:17;102597.78;;;15.83;100.00
48636;BME280;34429;52.332;5.614;2022-07-10T04:01:45;102603.09;;;15.84;100.00
48636;BME280;34429;52.332;5.614;2022-07-10T04:04:14;102606.78;;;15.83;100.00
48636;BME280;34429;52.332;5.614;2022-07-10T04:06:42;102596.63;;;15.85;100.00
48636;BME280;34429;52.332;5.614;2022-07-10T04:09:10;102604.06;;;15.83;100.00
48636;BME280;34429;52.332;5.614;2022-07-10T04:11:41;102598.38;;;15.75;100.00
48636;BME280;34429;52.332;5.614;2022-07-10T04:14:09;102601.22;;;15.73;100.00
48636;BME280;34429;52.332;5.614;2022-07-10T04:16:38;102603.22;;;15.83;100.00
48636;BME280;34429;52.332;5.614;2022-07-10T04:19:06;102601.69;;;15.90;100.00
48636;BME280;34429;52.332;5.614;2022-07-10T04:21:34;102602.81;;;15.87;100.00
48636;BME280;34429;52.332;5.614;2022-07-10T04:24:02;102596.22;;;16.01;100.00
48636;BME280;34429;52.332;5.614;2022-07-10T04:26:31;102593.88;;;16.08;100.00
48636;BME280;34429;52.332;5.614;2022-07-10T04:29:02;102590.53;;;16.04;100.00
48636;BME280;34429;52.332;5.614;2022-07-10T04:31:30;102583.00;;;16.08;100.00
48636;BME280;34429;52.332;5.614;2022-07-10T04:33:58;102584.41;;;15.91;100.00
48636;BME280;34429;52.332;5.614;2022-07-10T04:36:27;102589.00;;;15.90;100.00
48636;BME280;34429;52.332;5.614;2022-07-10T04:38:55;102595.53;;;15.88;100.00
48636;BME280;34429;52.332;5.614;2022-07-10T04:41:24;102586.47;;;15.99;100.00
48636;BME280;34429;52.332;5.614;2022-07-10T04:43:52;102587.00;;;15.92;100.00
48636;BME280;34429;52.332;5.614;2022-07-10T04:46:23;102590.06;;;15.99;100.00
48636;BME280;34429;52.332;5.614;2022-07-10T04:48:51;102584.41;;;15.91;100.00
48636;BME280;34429;52.332;5.614;2022-07-10T04:51:20;102585.88;;;15.95;100.00
48636;BME280;34429;52.332;5.614;2022-07-10T04:53:48;102598.38;;;16.19;100.00
48636;BME280;34429;52.332;5.614;2022-07-10T04:56:17;102592.53;;;16.02;100.00
48636;BME280;34429;52.332;5.614;2022-07-10T04:58:45;102596.38;;;15.88;100.00
48636;BME280;34429;52.332;5.614;2022-07-10T05:01:14;102599.22;;;15.87;100.00
48636;BME280;34429;52.332;5.614;2022-07-10T05:03:44;102607.88;;;15.81;100.00
48636;BME280;34429;52.332;5.614;2022-07-10T05:06:13;102611.34;;;15.71;100.00
48636;BME280;34429;52.332;5.614;2022-07-10T05:08:41;102612.47;;;15.69;100.00
48636;BME280;34429;52.332;5.614;2022-07-10T05:11:09;102618.78;;;15.47;100.00
48636;BME280;34429;52.332;5.614;2022-07-10T05:13:38;102617.91;;;15.57;100.00
48636;BME280;34429;52.332;5.614;2022-07-10T05:16:09;102626.19;;;15.45;100.00
48636;BME280;34429;52.332;5.614;2022-07-10T05:18:38;102632.34;;;15.47;100.00
48636;BME280;34429;52.332;5.614;2022-07-10T05:21:09;102634.44;;;15.66;100.00
48636;BME280;34429;52.332;5.614;2022-07-10T05:23:38;102617.75;;;15.70;100.00
48636;BME280;34429;52.332;5.614;2022-07-10T05:26:07;102623.19;;;15.70;100.00
48636;BME280;34429;52.332;5.614;2022-07-10T05:28:35;102623.94;;;15.61;100.00
48636;BME280;34429;52.332;5.614;2022-07-10T05:31:04;102619.00;;;15.66;100.00
48636;BME280;34429;52.332;5.614;2022-07-10T05:33:32;102627.19;;;15.55;100.00
48636;BME280;34429;52.332;5.614;2022-07-10T05:36:04;102622.97;;;15.62;100.00
48636;BME280;34429;52.332;5.614;2022-07-10T05:38:35;102624.22;;;15.47;100.00
48636;BME280;34429;52.332;5.614;2022-07-10T05:41:03;102625.19;;;15.57;100.00
48636;BME280;34429;52.332;5.614;2022-07-10T05:43:32;102627.06;;;15.45;100.00
48636;BME280;34429;52.332;5.614;2022-07-10T05:46:00;102635.34;;;15.21;100.00
48636;BME280;34429;52.332;5.614;2022-07-10T05:48:31;102632.09;;;15.38;100.00
48636;BME280;34429;52.332;5.614;2022-07-10T05:50:59;102628.91;;;15.33;100.00
48636;BME280;34429;52.332;5.614;2022-07-10T05:53:28;102625.22;;;15.34;100.00
48636;BME280;34429;52.332;5.614;2022-07-10T05:56:02;102631.75;;;15.43;100.00
48636;BME280;34429;52.332;5.614;2022-07-10T05:58:30;102628.88;;;15.56;100.00
48636;BME280;34429;52.332;5.614;2022-07-10T06:00:58;102639.47;;;15.59;100.00
48636;BME280;34429;52.332;5.614;2022-07-10T06:03:27;102639.38;;;15.61;100.00
48636;BME280;34429;52.332;5.614;2022-07-10T06:05:55;102630.88;;;15.54;100.00
48636;BME280;34429;52.332;5.614;2022-07-10T06:08:23;102629.88;;;15.55;100.00
48636;BME280;34429;52.332;5.614;2022-07-10T06:10:52;102638.63;;;15.70;100.00
48636;BME280;34429;52.332;5.614;2022-07-10T06:13:23;102628.63;;;15.82;100.00
48636;BME280;34429;52.332;5.614;2022-07-10T06:15:51;102630.38;;;15.83;100.00
48636;BME280;34429;52.332;5.614;2022-07-10T06:18:19;102628.97;;;15.88;100.00
48636;BME280;34429;52.332;5.614;2022-07-10T06:20:47;102630.44;;;15.92;100.00
48636;BME280;34429;52.332;5.614;2022-07-10T06:23:16;102626.75;;;15.93;100.00
48636;BME280;34429;52.332;5.614;2022-07-10T06:25:44;102628.81;;;16.01;100.00
48636;BME280;34429;52.332;5.614;2022-07-10T06:28:14;102624.63;;;15.97;100.00
48636;BME280;34429;52.332;5.614;2022-07-10T06:30:45;102629.84;;;15.89;100.00
48636;BME280;34429;52.332;5.614;2022-07-10T06:33:13;102624.41;;;15.89;100.00
48636;BME280;34429;52.332;5.614;2022-07-10T06:35:42;102632.63;;;15.99;100.00
48636;BME280;34429;52.332;5.614;2022-07-10T06:38:10;102636.66;;;16.16;100.00
48636;BME280;34429;52.332;5.614;2022-07-10T06:40:38;102632.03;;;16.06;100.00
48636;BME280;34429;52.332;5.614;2022-07-10T06:43:06;102630.38;;;16.15;100.00
48636;BME280;34429;52.332;5.614;2022-07-10T06:45:35;102628.22;;;16.30;100.00
48636;BME280;34429;52.332;5.614;2022-07-10T06:48:06;102621.06;;;16.29;100.00
48636;BME280;34429;52.332;5.614;2022-07-10T06:50:32;102622.84;;;16.40;100.00
48636;BME280;34429;52.332;5.614;2022-07-10T06:53:00;102629.84;;;16.21;100.00
48636;BME280;34429;52.332;5.614;2022-07-10T06:55:29;102629.25;;;16.18;100.00
48636;BME280;34429;52.332;5.614;2022-07-10T06:57:58;102629.47;;;16.26;100.00
48636;BME280;34429;52.332;5.614;2022-07-10T07:00:27;102630.84;;;16.41;100.00
48636;BME280;34429;52.332;5.614;2022-07-10T07:02:55;102627.56;;;16.38;100.00
48636;BME280;34429;52.332;5.614;2022-07-10T07:05:26;102630.41;;;16.57;100.00
48636;BME280;34429;52.332;5.614;2022-07-10T07:07:54;102625.31;;;16.64;100.00
48636;BME280;34429;52.332;5.614;2022-07-10T07:10:22;102629.69;;;16.76;100.00
48636;BME280;34429;52.332;5.614;2022-07-10T07:12:51;102623.56;;;16.84;100.00
48636;BME280;34429;52.332;5.614;2022-07-10T07:15:19;102617.97;;;16.86;100.00
48636;BME280;34429;52.332;5.614;2022-07-10T07:17:49;102618.00;;;16.64;100.00
48636;BME280;34429;52.332;5.614;2022-07-10T07:20:40;102617.75;;;16.68;100.00
48636;BME280;34429;52.332;5.614;2022-07-10T07:23:22;102619.16;;;16.83;100.00
48636;BME280;34429;52.332;5.614;2022-07-10T07:25:51;102619.91;;;16.74;100.00
48636;BME280;34429;52.332;5.614;2022-07-10T07:28:21;102631.13;;;16.80;100.00
48636;BME280;34429;52.332;5.614;2022-07-10T07:30:49;102626.16;;;16.86;100.00
48636;BME280;34429;52.332;5.614;2022-07-10T07:33:18;102623.44;;;16.86;100.00
48636;BME280;34429;52.332;5.614;2022-07-10T07:35:49;102621.28;;;16.58;100.00
48636;BME280;34429;52.332;5.614;2022-07-10T07:38:17;102624.50;;;16.73;100.00
48636;BME280;34429;52.332;5.614;2022-07-10T07:40:46;102623.00;;;16.59;100.00
48636;BME280;34429;52.332;5.614;2022-07-10T07:43:14;102632.13;;;16.79;100.00
48636;BME280;34429;52.332;5.614;2022-07-10T07:45:42;102634.81;;;16.91;100.00
48636;BME280;34429;52.332;5.614;2022-07-10T07:48:10;102634.53;;;16.94;100.00
48636;BME280;34429;52.332;5.614;2022-07-10T07:50:39;102633.34;;;17.08;100.00
48636;BME280;34429;52.332;5.614;2022-07-10T07:53:10;102628.78;;;17.18;100.00
48636;BME280;34429;52.332;5.614;2022-07-10T07:55:38;102634.34;;;17.16;100.00
48636;BME280;34429;52.332;5.614;2022-07-10T07:58:07;102633.75;;;17.44;100.00
48636;BME280;34429;52.332;5.614;2022-07-10T08:00:35;102633.06;;;17.51;100.00
48636;BME280;34429;52.332;5.614;2022-07-10T08:03:03;102631.78;;;17.56;100.00
48636;BME280;34429;52.332;5.614;2022-07-10T08:05:32;102633.81;;;17.54;100.00
48636;BME280;34429;52.332;5.614;2022-07-10T08:08:00;102624.56;;;17.35;100.00
48636;BME280;34429;52.332;5.614;2022-07-10T08:10:34;102621.63;;;17.58;100.00
48636;BME280;34429;52.332;5.614;2022-07-10T08:13:03;102622.09;;;17.82;100.00
48636;BME280;34429;52.332;5.614;2022-07-10T08:15:32;102618.38;;;17.83;100.00
48636;BME280;34429;52.332;5.614;2022-07-10T08:18:01;102617.78;;;17.80;100.00
48636;BME280;34429;52.332;5.614;2022-07-10T08:20:30;102612.91;;;17.64;100.00
48636;BME280;34429;52.332;5.614;2022-07-10T08:22:59;102615.50;;;17.65;100.00
48636;BME280;34429;52.332;5.614;2022-07-10T08:25:28;102617.00;;;17.48;100.00
48636;BME280;34429;52.332;5.614;2022-07-10T08:28:02;102608.34;;;17.84;100.00
48636;BME280;34429;52.332;5.614;2022-07-10T08:30:31;102603.78;;;17.84;100.00
48636;BME280;34429;52.332;5.614;2022-07-10T08:33:00;102605.09;;;18.19;100.00
48636;BME280;34429;52.332;5.614;2022-07-10T08:35:28;102604.38;;;18.37;100.00
48636;BME280;34429;52.332;5.614;2022-07-10T08:37:56;102612.41;;;18.48;100.00
48636;BME280;34429;52.332;5.614;2022-07-10T08:40:25;102611.47;;;18.87;100.00
48636;BME280;34429;52.332;5.614;2022-07-10T08:43:04;102607.13;;;18.84;100.00
48636;BME280;34429;52.332;5.614;2022-07-10T08:45:33;102613.19;;;18.78;100.00
48636;BME280;34429;52.332;5.614;2022-07-10T08:48:02;102605.22;;;18.57;100.00
48636;BME280;34429;52.332;5.614;2022-07-10T08:50:33;102604.56;;;18.93;100.00
48636;BME280;34429;52.332;5.614;2022-07-10T08:53:08;102606.84;;;18.97;100.00
48636;BME280;34429;52.332;5.614;2022-07-10T08:55:37;102605.72;;;19.00;100.00
48636;BME280;34429;52.332;5.614;2022-07-10T08:58:08;102608.78;;;19.24;100.00
48636;BME280;34429;52.332;5.614;2022-07-10T09:00:37;102605.44;;;19.58;100.00
48636;BME280;34429;52.332;5.614;2022-07-10T09:03:07;102601.28;;;19.54;100.00
48636;BME280;34429;52.332;5.614;2022-07-10T09:05:35;102594.81;;;19.55;100.00
48636;BME280;34429;52.332;5.614;2022-07-10T09:08:04;102591.19;;;20.01;100.00
48636;BME280;34429;52.332;5.614;2022-07-10T09:10:48;102594.75;;;20.37;100.00
48636;BME280;34429;52.332;5.614;2022-07-10T09:13:19;102600.16;;;20.47;100.00
48636;BME280;34429;52.332;5.614;2022-07-10T09:15:49;102597.16;;;20.40;100.00
48636;BME280;34429;52.332;5.614;2022-07-10T09:18:21;102599.28;;;20.46;100.00
48636;BME280;34429;52.332;5.614;2022-07-10T09:20:51;102594.50;;;20.04;100.00
48636;BME280;34429;52.332;5.614;2022-07-10T09:23:20;102585.97;;;20.07;100.00
48636;BME280;34429;52.332;5.614;2022-07-10T09:25:51;102588.72;;;20.07;100.00
48636;BME280;34429;52.332;5.614;2022-07-10T09:28:23;102594.81;;;19.83;100.00
48636;BME280;34429;52.332;5.614;2022-07-10T09:30:51;102585.47;;;19.76;100.00
48636;BME280;34429;52.332;5.614;2022-07-10T09:33:21;102590.66;;;19.79;100.00
48636;BME280;34429;52.332;5.614;2022-07-10T09:35:59;102589.22;;;20.11;100.00
48636;BME280;34429;52.332;5.614;2022-07-10T09:38:50;102577.53;;;20.01;100.00
48636;BME280;34429;52.332;5.614;2022-07-10T09:41:21;102587.91;;;20.15;100.00
48636;BME280;34429;52.332;5.614;2022-07-10T09:43:53;102578.25;;;20.03;100.00
48636;BME280;34429;52.332;5.614;2022-07-10T09:46:23;102575.72;;;19.73;100.00
48636;BME280;34429;52.332;5.614;2022-07-10T09:49:06;102576.94;;;20.33;100.00
48636;BME280;34429;52.332;5.614;2022-07-10T09:51:36;102573.34;;;20.77;100.00
48636;BME280;34429;52.332;5.614;2022-07-10T09:54:06;102565.84;;;21.13;100.00
48636;BME280;34429;52.332;5.614;2022-07-10T09:56:40;102564.50;;;21.68;100.00
48636;BME280;34429;52.332;5.614;2022-07-10T09:59:13;102567.63;;;21.39;100.00
48636;BME280;34429;52.332;5.614;2022-07-10T10:01:44;102568.84;;;21.37;100.00
48636;BME280;34429;52.332;5.614;2022-07-10T10:04:14;102574.28;;;21.20;100.00
48636;BME280;34429;52.332;5.614;2022-07-10T10:06:45;102570.13;;;20.81;100.00
48636;BME280;34429;52.332;5.614;2022-07-10T10:09:19;102572.03;;;20.37;100.00
48636;BME280;34429;52.332;5.614;2022-07-10T10:11:51;102572.22;;;20.17;100.00
48636;BME280;34429;52.332;5.614;2022-07-10T10:14:25;102578.09;;;19.86;100.00
48636;BME280;34429;52.332;5.614;2022-07-10T10:16:55;102573.03;;;19.64;100.00
48636;BME280;34429;52.332;5.614;2022-07-10T10:19:24;102577.50;;;20.37;100.00
48636;BME280;34429;52.332;5.614;2022-07-10T10:22:05;102575.91;;;21.05;100.00
48636;BME280;34429;52.332;5.614;2022-07-10T10:24:34;102569.97;;;21.17;100.00
48636;BME280;34429;52.332;5.614;2022-07-10T10:27:05;102569.03;;;21.43;100.00
48636;BME280;34429;52.332;5.614;2022-07-10T10:29:37;102576.97;;;21.12;100.00
48636;BME280;34429;52.332;5.614;2022-07-10T10:32:08;102579.69;;;21.12;100.00
48636;BME280;34429;52.332;5.614;2022-07-10T10:34:41;102580.97;;;20.91;100.00
48636;BME280;34429;52.332;5.614;2022-07-10T10:37:34;102580.94;;;20.65;100.00
48636;BME280;34429;52.332;5.614;2022-07-10T10:40:06;102584.94;;;20.71;100.00
48636;BME280;34429;52.332;5.614;2022-07-10T10:42:36;102572.69;;;20.30;100.00
48636;BME280;34429;52.332;5.614;2022-07-10T10:45:32;102583.72;;;20.47;100.00
48636;BME280;34429;52.332;5.614;2022-07-10T10:48:04;102572.19;;;20.35;100.00
48636;BME280;34429;52.332;5.614;2022-07-10T10:50:37;102582.34;;;20.43;100.00
48636;BME280;34429;52.332;5.614;2022-07-10T10:53:12;102574.97;;;20.43;100.00
48636;BME280;34429;52.332;5.614;2022-07-10T10:55:41;102569.44;;;20.79;100.00
48636;BME280;34429;52.332;5.614;2022-07-10T10:58:37;102573.56;;;20.83;100.00
48636;BME280;34429;52.332;5.614;2022-07-10T11:01:24;102566.34;;;20.56;100.00
48636;BME280;34429;52.332;5.614;2022-07-10T11:04:15;102575.25;;;21.11;100.00
48636;BME280;34429;52.332;5.614;2022-07-10T11:06:46;102560.09;;;21.84;100.00
48636;BME280;34429;52.332;5.614;2022-07-10T11:09:25;102563.16;;;21.89;100.00
48636;BME280;34429;52.332;5.614;2022-07-10T11:12:02;102556.47;;;22.08;100.00
48636;BME280;34429;52.332;5.614;2022-07-10T11:14:31;102559.06;;;22.10;100.00
48636;BME280;34429;52.332;5.614;2022-07-10T11:17:03;102555.78;;;21.98;100.00
48636;BME280;34429;52.332;5.614;2022-07-10T11:19:32;102567.41;;;21.59;100.00
48636;BME280;34429;52.332;5.614;2022-07-10T11:22:23;102554.16;;;21.46;100.00
48636;BME280;34429;52.332;5.614;2022-07-10T11:25:16;102564.78;;;21.06;100.00
48636;BME280;34429;52.332;5.614;2022-07-10T11:28:05;102561.59;;;21.19;100.00
48636;BME280;34429;52.332;5.614;2022-07-10T11:30:45;102563.47;;;20.84;100.00
48636;BME280;34429;52.332;5.614;2022-07-10T11:33:17;102565.72;;;21.23;100.00
48636;BME280;34429;52.332;5.614;2022-07-10T11:35:46;102563.53;;;20.92;100.00
48636;BME280;34429;52.332;5.614;2022-07-10T11:38:21;102562.53;;;21.02;100.00
48636;BME280;34429;52.332;5.614;2022-07-10T11:40:51;102555.25;;;21.61;100.00
48636;BME280;34429;52.332;5.614;2022-07-10T11:43:20;102552.19;;;21.81;100.00
48636;BME280;34429;52.332;5.614;2022-07-10T11:45:49;102555.94;;;20.86;100.00
48636;BME280;34429;52.332;5.614;2022-07-10T11:48:22;102560.41;;;21.22;100.00
48636;BME280;34429;52.332;5.614;2022-07-10T11:50:51;102552.75;;;21.33;100.00
48636;BME280;34429;52.332;5.614;2022-07-10T11:53:23;102555.44;;;21.25;100.00
48636;BME280;34429;52.332;5.614;2022-07-10T11:55:54;102550.03;;;21.42;100.00
48636;BME280;34429;52.332;5.614;2022-07-10T11:58:23;102552.63;;;20.74;100.00
48636;BME280;34429;52.332;5.614;2022-07-10T12:00:57;102545.88;;;21.29;100.00
48636;BME280;34429;52.332;5.614;2022-07-10T12:03:30;102549.97;;;21.76;100.00
48636;BME280;34429;52.332;5.614;2022-07-10T12:06:03;102533.88;;;21.81;100.00
48636;BME280;34429;52.332;5.614;2022-07-10T12:11:13;102538.16;;;22.17;100.00
48636;BME280;34429;52.332;5.614;2022-07-10T12:13:43;102533.34;;;22.11;100.00
48636;BME280;34429;52.332;5.614;2022-07-10T12:16:12;102532.66;;;22.25;100.00
48636;BME280;34429;52.332;5.614;2022-07-10T12:18:43;102525.28;;;22.59;100.00
48636;BME280;34429;52.332;5.614;2022-07-10T12:21:13;102529.06;;;22.08;100.00
48636;BME280;34429;52.332;5.614;2022-07-10T12:23:44;102537.47;;;22.48;100.00
48636;BME280;34429;52.332;5.614;2022-07-10T12:26:14;102538.97;;;22.67;100.00
48636;BME280;34429;52.332;5.614;2022-07-10T12:28:53;102540.41;;;22.38;100.00
48636;BME280;34429;52.332;5.614;2022-07-10T12:31:23;102538.81;;;22.44;100.00
48636;BME280;34429;52.332;5.614;2022-07-10T12:33:56;102539.09;;;22.82;100.00
48636;BME280;34429;52.332;5.614;2022-07-10T12:36:41;102536.78;;;22.37;100.00
48636;BME280;34429;52.332;5.614;2022-07-10T12:39:10;102541.50;;;22.77;100.00
48636;BME280;34429;52.332;5.614;2022-07-10T12:41:57;102540.03;;;23.14;100.00
48636;BME280;34429;52.332;5.614;2022-07-10T12:44:35;102544.97;;;23.18;100.00
48636;BME280;34429;52.332;5.614;2022-07-10T12:47:05;102534.88;;;23.02;100.00
48636;BME280;34429;52.332;5.614;2022-07-10T12:49:54;102544.06;;;23.26;100.00
48636;BME280;34429;52.332;5.614;2022-07-10T12:52:23;102540.78;;;23.62;100.00
48636;BME280;34429;52.332;5.614;2022-07-10T12:55:09;102538.06;;;23.85;97.75
48636;BME280;34429;52.332;5.614;2022-07-10T12:57:51;102533.50;;;23.46;100.00
48636;BME280;34429;52.332;5.614;2022-07-10T13:00:21;102542.53;;;22.84;100.00